Wetterdaten: Woche 24.06.13 - 30.06.13 (KW26)
Datum Zeit Temp. Aussen +5cm Feuchte Auss Luftdruck Regen Sonnenschein Regendauer UV Solar Windben
24.06.2013 00:00 14,3 C 13,4 C 85 % 1014,2 hPa 0,0 l/m 0,00 h 0,00 h 0,0 UV-I 0 W/m 10,1 km/h (2 Bft)
24.06.2013 01:00 14,1 C 12,8 C 85 % 1014,7 hPa 0,0 l/m 0,00 h 0,23 h 0,0 UV-I 0 W/m 8,9 km/h (2 Bft)
24.06.2013 02:00 13,4 C 12,1 C 89 % 1015,0 hPa 0,2 l/m 0,00 h 0,37 h 0,0 UV-I 0 W/m 7,9 km/h (2 Bft)
24.06.2013 03:00 12,9 C 11,7 C 92 % 1015,1 hPa 0,0 l/m 0,00 h 0,00 h 0,0 UV-I 0 W/m 4,8 km/h (1 Bft)
24.06.2013 04:00 12,8 C 12,1 C 92 % 1015,4 hPa 0,0 l/m 0,00 h 0,00 h 0,0 UV-I 0 W/m 3,4 km/h (1 Bft)
24.06.2013 05:00 12,9 C 12,3 C 92 % 1016,0 hPa 0,0 l/m 0,00 h 0,00 h 0,0 UV-I 12 W/m 3,9 km/h (1 Bft)
24.06.2013 06:00 13,0 C 12,0 C 92 % 1016,4 hPa 0,0 l/m 0,00 h 0,50 h 0,0 UV-I 44 W/m 3,3 km/h (1 Bft)
24.06.2013 07:00 13,3 C 12,3 C 93 % 1016,7 hPa 0,0 l/m 0,10 h 0,10 h 0,0 UV-I 114 W/m 6,9 km/h (2 Bft)
24.06.2013 08:00 14,1 C 13,6 C 89 % 1017,1 hPa 0,0 l/m 0,33 h 0,00 h 0,6 UV-I 250 W/m 11,2 km/h (2 Bft)
24.06.2013 09:00 15,9 C 15,3 C 79 % 1017,5 hPa 0,0 l/m 0,52 h 0,00 h 1,1 UV-I 417 W/m 12,9 km/h (3 Bft)
24.06.2013 10:00 16,0 C 15,5 C 76 % 1018,0 hPa 0,0 l/m 0,10 h 0,00 h 0,8 UV-I 199 W/m 11,5 km/h (2 Bft)
24.06.2013 11:00 15,3 C 15,1 C 78 % 1018,8 hPa 0,0 l/m 0,00 h 0,00 h 0,9 UV-I 223 W/m 12,2 km/h (2 Bft)
24.06.2013 12:00 15,3 C 16,0 C 80 % 1019,3 hPa 0,2 l/m 0,00 h 0,03 h 1,5 UV-I 306 W/m 12,2 km/h (3 Bft)
24.06.2013 13:00 15,7 C 16,6 C 80 % 1019,8 hPa 0,0 l/m 0,00 h 0,00 h 1,7 UV-I 330 W/m 12,0 km/h (2 Bft)
24.06.2013 14:00 15,9 C 16,6 C 78 % 1020,2 hPa 0,0 l/m 0,10 h 0,00 h 2,0 UV-I 377 W/m 12,5 km/h (3 Bft)
24.06.2013 15:00 16,6 C 17,7 C 76 % 1020,4 hPa 0,0 l/m 0,10 h 0,00 h 1,5 UV-I 349 W/m 12,2 km/h (3 Bft)
24.06.2013 16:00 16,0 C 16,1 C 77 % 1020,9 hPa 0,0 l/m 0,00 h 0,00 h 0,8 UV-I 194 W/m 11,3 km/h (2 Bft)
24.06.2013 17:00 15,8 C 14,9 C 79 % 1021,3 hPa 0,0 l/m 0,00 h 0,23 h 0,0 UV-I 109 W/m 9,3 km/h (2 Bft)
24.06.2013 18:00 14,9 C 13,1 C 86 % 1021,7 hPa 0,2 l/m 0,00 h 0,88 h 0,0 UV-I 104 W/m 5,5 km/h (1 Bft)
24.06.2013 19:00 13,8 C 12,1 C 91 % 1022,2 hPa 0,0 l/m 0,00 h 0,00 h 0,0 UV-I 47 W/m 5,2 km/h (1 Bft)
24.06.2013 20:00 13,2 C 11,6 C 92 % 1022,7 hPa 0,2 l/m 0,00 h 0,88 h 0,0 UV-I 23 W/m 2,2 km/h (1 Bft)
24.06.2013 21:00 12,8 C 11,5 C 94 % 1023,2 hPa 0,2 l/m 0,00 h 0,75 h 0,0 UV-I 10 W/m 3,9 km/h (1 Bft)
24.06.2013 22:00 12,4 C 11,2 C 95 % 1023,5 hPa 0,0 l/m 0,00 h 0,13 h 0,0 UV-I 0 W/m 1,7 km/h (1 Bft)
24.06.2013 23:00 12,2 C 11,2 C 96 % 1023,8 hPa 0,0 l/m 0,00 h 0,00 h 0,0 UV-I 0 W/m 2,5 km/h (1 Bft)
25.06.2013 00:00 12,2 C 11,2 C 96 % 1024,0 hPa 0,0 l/m 0,00 h 0,00 h 0,0 UV-I 0 W/m 1,6 km/h (1 Bft)
25.06.2013 01:00 12,0 C 11,1 C 97 % 1024,1 hPa 0,0 l/m 0,00 h 0,00 h 0,0 UV-I 0 W/m 2,4 km/h (1 Bft)
25.06.2013 02:00 11,7 C 10,4 C 96 % 1024,2 hPa 0,0 l/m 0,00 h 0,00 h 0,0 UV-I 0 W/m 0,4 km/h (0 Bft)
25.06.2013 03:00 11,2 C 10,3 C 96 % 1024,4 hPa 0,0 l/m 0,00 h 0,00 h 0,0 UV-I 0 W/m 0,0 km/h (0 Bft)
25.06.2013 04:00 11,0 C 10,1 C 96 % 1024,7 hPa 0,0 l/m 0,00 h 0,00 h 0,0 UV-I 0 W/m 0,1 km/h (0 Bft)
25.06.2013 05:00 10,8 C 10,1 C 96 % 1024,7 hPa 0,0 l/m 0,00 h 0,03 h 0,0 UV-I 10 W/m 0,2 km/h (0 Bft)
25.06.2013 06:00 10,9 C 10,4 C 97 % 1024,9 hPa 0,0 l/m 0,00 h 0,23 h 0,0 UV-I 44 W/m 1,5 km/h (1 Bft)
25.06.2013 07:00 11,3 C 11,1 C 97 % 1025,3 hPa 0,0 l/m 0,00 h 0,17 h 0,0 UV-I 74 W/m 4,6 km/h (1 Bft)
25.06.2013 08:00 11,9 C 12,3 C 96 % 1025,7 hPa 0,0 l/m 0,37 h 0,17 h 0,0 UV-I 216 W/m 8,1 km/h (2 Bft)
25.06.2013 09:00 12,8 C 13,3 C 91 % 1026,1 hPa 0,0 l/m 0,00 h 0,00 h 0,6 UV-I 226 W/m 10,5 km/h (2 Bft)
25.06.2013 10:00 13,7 C 14,6 C 85 % 1026,2 hPa 0,0 l/m 0,00 h 0,00 h 1,1 UV-I 327 W/m 10,7 km/h (2 Bft)
25.06.2013 11:00 14,7 C 16,3 C 78 % 1026,3 hPa 0,0 l/m 0,70 h 0,00 h 2,1 UV-I 455 W/m 11,3 km/h (2 Bft)
25.06.2013 12:00 15,7 C 17,6 C 74 % 1026,3 hPa 0,0 l/m 0,47 h 0,00 h 2,5 UV-I 483 W/m 11,6 km/h (2 Bft)
25.06.2013 13:00 16,4 C 17,6 C 69 % 1026,3 hPa 0,0 l/m 0,23 h 0,00 h 1,9 UV-I 366 W/m 13,7 km/h (3 Bft)
25.06.2013 14:00 16,1 C 16,5 C 71 % 1026,3 hPa 0,0 l/m 0,27 h 0,00 h 3,2 UV-I 402 W/m 13,0 km/h (3 Bft)
25.06.2013 15:00 15,0 C 14,8 C 66 % 1026,7 hPa 0,0 l/m 0,00 h 0,03 h 1,4 UV-I 195 W/m 8,9 km/h (2 Bft)
25.06.2013 16:00 15,8 C 15,9 C 65 % 1026,7 hPa 0,0 l/m 0,17 h 0,00 h 1,2 UV-I 224 W/m 11,7 km/h (2 Bft)
25.06.2013 17:00 16,7 C 17,0 C 58 % 1026,7 hPa 0,0 l/m 0,48 h 0,00 h 1,4 UV-I 314 W/m 17,4 km/h (3 Bft)
25.06.2013 18:00 16,0 C 16,0 C 61 % 1026,8 hPa 0,0 l/m 0,37 h 0,00 h 0,5 UV-I 244 W/m 19,0 km/h (3 Bft)
25.06.2013 19:00 15,6 C 15,2 C 65 % 1026,9 hPa 0,0 l/m 0,00 h 0,00 h 0,0 UV-I 115 W/m 14,3 km/h (3 Bft)
25.06.2013 20:00 15,1 C 14,4 C 66 % 1027,1 hPa 0,0 l/m 0,00 h 0,00 h 0,0 UV-I 53 W/m 5,1 km/h (1 Bft)
25.06.2013 21:00 14,5 C 13,1 C 70 % 1027,4 hPa 0,0 l/m 0,00 h 0,00 h 0,0 UV-I 15 W/m 2,7 km/h (1 Bft)
25.06.2013 22:00 13,8 C 12,3 C 70 % 1028,1 hPa 0,0 l/m 0,00 h 0,00 h 0,0 UV-I 0 W/m 7,4 km/h (2 Bft)
25.06.2013 23:00 12,8 C 10,6 C 73 % 1028,3 hPa 0,0 l/m 0,00 h 0,00 h 0,0 UV-I 0 W/m 0,0 km/h (0 Bft)
26.06.2013 00:00 11,2 C 8,3 C 79 % 1028,6 hPa 0,0 l/m 0,00 h 0,00 h 0,0 UV-I 0 W/m 0,0 km/h (0 Bft)
26.06.2013 01:00 9,6 C 7,2 C 83 % 1028,6 hPa 0,0 l/m 0,00 h 0,00 h 0,0 UV-I 0 W/m 0,0 km/h (0 Bft)
26.06.2013 02:00 8,5 C 6,5 C 84 % 1028,4 hPa 0,0 l/m 0,00 h 0,00 h 0,0 UV-I 0 W/m 0,0 km/h (0 Bft)
26.06.2013 03:00 7,8 C 5,9 C 86 % 1028,2 hPa 0,0 l/m 0,00 h 0,00 h 0,0 UV-I 0 W/m 0,0 km/h (0 Bft)
26.06.2013 04:00 7,0 C 5,5 C 88 % 1028,1 hPa 0,0 l/m 0,00 h 0,00 h 0,0 UV-I 0 W/m 0,0 km/h (0 Bft)
26.06.2013 05:00 6,4 C 5,1 C 90 % 1028,1 hPa 0,0 l/m 0,00 h 0,00 h 0,0 UV-I 13 W/m 0,0 km/h (0 Bft)
26.06.2013 06:00 6,6 C 6,9 C 92 % 1028,1 hPa 0,0 l/m 0,00 h 0,00 h 0,0 UV-I 49 W/m 0,0 km/h (0 Bft)
26.06.2013 07:00 8,2 C 9,2 C 95 % 1028,3 hPa 0,0 l/m 0,00 h 0,00 h 0,0 UV-I 80 W/m 0,0 km/h (0 Bft)
26.06.2013 08:00 9,9 C 10,9 C 96 % 1028,6 hPa 0,0 l/m 0,00 h 0,00 h 0,0 UV-I 107 W/m 0,0 km/h (0 Bft)
26.06.2013 09:00 11,8 C 12,7 C 92 % 1028,9 hPa 0,0 l/m 0,13 h 0,00 h 0,6 UV-I 231 W/m 2,9 km/h (1 Bft)
26.06.2013 10:00 14,1 C 18,3 C 78 % 1028,6 hPa 0,0 l/m 0,78 h 0,00 h 2,0 UV-I 572 W/m 6,1 km/h (2 Bft)
26.06.2013 11:00 15,5 C 17,6 C 66 % 1028,5 hPa 0,0 l/m 0,33 h 0,00 h 1,7 UV-I 398 W/m 7,8 km/h (2 Bft)
26.06.2013 12:00 15,6 C 16,9 C 67 % 1028,5 hPa 0,0 l/m 0,23 h 0,00 h 2,0 UV-I 393 W/m 5,7 km/h (1 Bft)
26.06.2013 13:00 16,1 C 17,7 C 66 % 1028,4 hPa 0,0 l/m 0,13 h 0,00 h 1,9 UV-I 382 W/m 8,8 km/h (2 Bft)
26.06.2013 14:00 16,4 C 17,3 C 64 % 1028,3 hPa 0,0 l/m 0,10 h 0,00 h 1,5 UV-I 292 W/m 8,0 km/h (2 Bft)
26.06.2013 15:00 17,1 C 17,8 C 62 % 1027,8 hPa 0,0 l/m 0,17 h 0,00 h 1,9 UV-I 306 W/m 7,7 km/h (2 Bft)
26.06.2013 16:00 16,4 C 15,9 C 65 % 1027,6 hPa 0,0 l/m 0,03 h 0,07 h 1,0 UV-I 145 W/m 8,9 km/h (2 Bft)
26.06.2013 17:00 16,2 C 16,3 C 67 % 1027,4 hPa 0,0 l/m 0,00 h 0,00 h 0,5 UV-I 188 W/m 7,5 km/h (2 Bft)
26.06.2013 18:00 15,9 C 15,7 C 68 % 1027,1 hPa 0,0 l/m 0,00 h 0,00 h 0,0 UV-I 141 W/m 6,4 km/h (2 Bft)
26.06.2013 19:00 15,6 C 14,7 C 70 % 1026,7 hPa 0,0 l/m 0,00 h 0,00 h 0,0 UV-I 76 W/m 5,0 km/h (1 Bft)
26.06.2013 20:00 15,2 C 13,9 C 73 % 1026,3 hPa 0,0 l/m 0,00 h 0,00 h 0,0 UV-I 44 W/m 3,1 km/h (1 Bft)
26.06.2013 21:00 14,3 C 12,8 C 77 % 1025,7 hPa 0,0 l/m 0,00 h 0,00 h 0,0 UV-I 12 W/m 0,4 km/h (0 Bft)
26.06.2013 22:00 13,5 C 12,0 C 78 % 1025,4 hPa 0,0 l/m 0,00 h 0,00 h 0,0 UV-I 0 W/m 0,0 km/h (0 Bft)
26.06.2013 23:00 13,1 C 11,8 C 81 % 1025,3 hPa 0,0 l/m 0,00 h 0,00 h 0,0 UV-I 0 W/m 0,0 km/h (0 Bft)
27.06.2013 00:00 12,8 C 11,4 C 83 % 1025,2 hPa 0,4 l/m 0,00 h 0,27 h 0,0 UV-I 0 W/m 0,0 km/h (0 Bft)
27.06.2013 01:00 12,4 C 10,7 C 90 % 1025,1 hPa 2,0 l/m 0,00 h 0,97 h 0,0 UV-I 0 W/m 3,8 km/h (1 Bft)
27.06.2013 02:00 11,6 C 10,1 C 93 % 1024,5 hPa 2,4 l/m 0,00 h 0,97 h 0,0 UV-I 0 W/m 1,8 km/h (1 Bft)
27.06.2013 03:00 11,0 C 9,6 C 94 % 1023,9 hPa 0,4 l/m 0,00 h 0,93 h 0,0 UV-I 0 W/m 0,2 km/h (0 Bft)
27.06.2013 04:00 10,6 C 9,6 C 95 % 1023,5 hPa 0,0 l/m 0,00 h 0,38 h 0,0 UV-I 0 W/m 0,0 km/h (0 Bft)
27.06.2013 05:00 10,6 C 9,6 C 95 % 1023,5 hPa 0,0 l/m 0,00 h 0,00 h 0,0 UV-I 12 W/m 0,0 km/h (0 Bft)
27.06.2013 06:00 10,6 C 9,9 C 96 % 1023,2 hPa 0,0 l/m 0,00 h 0,00 h 0,0 UV-I 32 W/m 0,1 km/h (0 Bft)
27.06.2013 07:00 10,9 C 10,4 C 97 % 1023,1 hPa 0,0 l/m 0,00 h 0,00 h 0,0 UV-I 73 W/m 0,4 km/h (0 Bft)
27.06.2013 08:00 11,8 C 11,4 C 97 % 1023,1 hPa 0,0 l/m 0,07 h 0,00 h 0,0 UV-I 153 W/m 3,4 km/h (1 Bft)
27.06.2013 09:00 12,6 C 12,5 C 93 % 1023,3 hPa 0,0 l/m 0,03 h 0,00 h 0,6 UV-I 242 W/m 9,2 km/h (2 Bft)
27.06.2013 10:00 13,4 C 14,0 C 87 % 1023,3 hPa 0,0 l/m 0,17 h 0,00 h 1,2 UV-I 346 W/m 10,5 km/h (2 Bft)
27.06.2013 11:00 15,0 C 16,8 C 82 % 1023,2 hPa 0,0 l/m 0,33 h 0,00 h 2,0 UV-I 395 W/m 5,7 km/h (1 Bft)
27.06.2013 12:00 15,8 C 17,2 C 76 % 1023,1 hPa 0,0 l/m 0,53 h 0,00 h 2,7 UV-I 494 W/m 7,5 km/h (2 Bft)
27.06.2013 13:00 15,8 C 15,2 C 74 % 1023,3 hPa 0,2 l/m 0,13 h 0,47 h 1,3 UV-I 226 W/m 9,8 km/h (2 Bft)
27.06.2013 14:00 14,4 C 14,8 C 80 % 1023,5 hPa 0,0 l/m 0,17 h 0,10 h 1,5 UV-I 327 W/m 5,5 km/h (1 Bft)
27.06.2013 15:00 15,6 C 15,7 C 75 % 1023,0 hPa 0,0 l/m 0,37 h 0,17 h 2,4 UV-I 388 W/m 11,2 km/h (2 Bft)
27.06.2013 16:00 14,9 C 14,3 C 81 % 1022,8 hPa 0,0 l/m 0,10 h 0,17 h 0,9 UV-I 267 W/m 3,6 km/h (1 Bft)
27.06.2013 17:00 15,0 C 14,6 C 77 % 1022,5 hPa 0,0 l/m 0,00 h 0,00 h 0,5 UV-I 92 W/m 6,5 km/h (2 Bft)
27.06.2013 18:00 15,4 C 14,8 C 72 % 1022,1 hPa 0,0 l/m 0,00 h 0,00 h 0,0 UV-I 142 W/m 6,1 km/h (2 Bft)
27.06.2013 19:00 15,1 C 13,9 C 72 % 1022,0 hPa 0,0 l/m 0,00 h 0,00 h 0,0 UV-I 81 W/m 6,8 km/h (2 Bft)
27.06.2013 20:00 14,4 C 13,3 C 74 % 1021,9 hPa 0,0 l/m 0,13 h 0,00 h 0,0 UV-I 61 W/m 2,4 km/h (1 Bft)
27.06.2013 21:00 13,7 C 11,5 C 75 % 1021,9 hPa 0,0 l/m 0,10 h 0,00 h 0,0 UV-I 19 W/m 0,9 km/h (0 Bft)
27.06.2013 22:00 12,2 C 9,3 C 79 % 1021,9 hPa 0,0 l/m 0,00 h 0,00 h 0,0 UV-I 0 W/m 0,0 km/h (0 Bft)
27.06.2013 23:00 10,8 C 9,4 C 84 % 1021,8 hPa 0,0 l/m 0,00 h 0,00 h 0,0 UV-I 0 W/m 0,2 km/h (0 Bft)
28.06.2013 00:00 10,4 C 9,4 C 87 % 1021,6 hPa 0,0 l/m 0,00 h 0,00 h 0,0 UV-I 0 W/m 0,3 km/h (0 Bft)
28.06.2013 01:00 10,2 C 9,3 C 88 % 1021,1 hPa 0,0 l/m 0,00 h 0,00 h 0,0 UV-I 0 W/m 0,1 km/h (0 Bft)
28.06.2013 02:00 10,1 C 9,4 C 89 % 1020,5 hPa 0,0 l/m 0,00 h 0,00 h 0,0 UV-I 0 W/m 1,4 km/h (1 Bft)
28.06.2013 03:00 10,5 C 10,0 C 88 % 1020,0 hPa 0,0 l/m 0,00 h 0,40 h 0,0 UV-I 0 W/m 1,8 km/h (1 Bft)
28.06.2013 04:00 10,8 C 9,6 C 88 % 1019,4 hPa 0,2 l/m 0,00 h 0,77 h 0,0 UV-I 0 W/m 2,7 km/h (1 Bft)
28.06.2013 05:00 10,9 C 9,6 C 90 % 1018,9 hPa 0,2 l/m 0,00 h 0,73 h 0,0 UV-I 5 W/m 4,7 km/h (1 Bft)
28.06.2013 06:00 10,9 C 9,5 C 92 % 1018,7 hPa 1,6 l/m 0,00 h 0,97 h 0,0 UV-I 8 W/m 3,5 km/h (1 Bft)
28.06.2013 07:00 10,8 C 9,8 C 95 % 1018,5 hPa 0,6 l/m 0,00 h 0,83 h 0,0 UV-I 25 W/m 2,6 km/h (1 Bft)
28.06.2013 08:00 11,3 C 10,6 C 96 % 1018,6 hPa 0,0 l/m 0,00 h 0,47 h 0,0 UV-I 48 W/m 5,4 km/h (1 Bft)
28.06.2013 09:00 11,6 C 10,7 C 97 % 1018,9 hPa 0,2 l/m 0,00 h 0,63 h 0,0 UV-I 38 W/m 3,6 km/h (1 Bft)
28.06.2013 10:00 11,8 C 11,2 C 97 % 1019,1 hPa 1,8 l/m 0,00 h 0,97 h 0,0 UV-I 85 W/m 5,4 km/h (1 Bft)
28.06.2013 11:00 12,4 C 12,0 C 98 % 1019,1 hPa 0,6 l/m 0,00 h 0,97 h 0,7 UV-I 136 W/m 4,2 km/h (1 Bft)
28.06.2013 12:00 12,9 C 12,1 C 98 % 1019,2 hPa 0,0 l/m 0,00 h 0,67 h 0,6 UV-I 133 W/m 9,4 km/h (2 Bft)
28.06.2013 13:00 13,3 C 12,5 C 97 % 1019,1 hPa 0,0 l/m 0,00 h 0,50 h 0,8 UV-I 176 W/m 9,1 km/h (2 Bft)
28.06.2013 14:00 14,1 C 13,4 C 95 % 1019,0 hPa 0,0 l/m 0,00 h 0,17 h 1,3 UV-I 227 W/m 9,8 km/h (2 Bft)
28.06.2013 15:00 14,9 C 14,5 C 92 % 1018,9 hPa 0,0 l/m 0,00 h 0,00 h 0,8 UV-I 208 W/m 7,7 km/h (2 Bft)
28.06.2013 16:00 15,3 C 14,5 C 91 % 1018,6 hPa 0,0 l/m 0,00 h 0,33 h 0,9 UV-I 200 W/m 7,0 km/h (2 Bft)
28.06.2013 17:00 15,5 C 14,8 C 91 % 1018,3 hPa 0,0 l/m 0,00 h 0,00 h 0,6 UV-I 132 W/m 3,8 km/h (1 Bft)
28.06.2013 18:00 15,8 C 14,9 C 91 % 1018,2 hPa 0,0 l/m 0,00 h 0,27 h 0,0 UV-I 130 W/m 4,3 km/h (1 Bft)
28.06.2013 19:00 15,7 C 14,9 C 91 % 1018,0 hPa 0,0 l/m 0,07 h 0,03 h 0,0 UV-I 92 W/m 1,3 km/h (1 Bft)
28.06.2013 20:00 15,6 C 14,2 C 91 % 1017,7 hPa 0,0 l/m 0,00 h 0,00 h 0,0 UV-I 19 W/m 3,1 km/h (1 Bft)
28.06.2013 21:00 15,2 C 13,7 C 91 % 1017,7 hPa 0,0 l/m 0,00 h 0,00 h 0,0 UV-I 14 W/m 0,8 km/h (0 Bft)
28.06.2013 22:00 14,8 C 13,3 C 92 % 1017,5 hPa 0,0 l/m 0,00 h 0,23 h 0,0 UV-I 0 W/m 2,8 km/h (1 Bft)
28.06.2013 23:00 14,3 C 12,5 C 93 % 1017,3 hPa 1,0 l/m 0,00 h 0,97 h 0,0 UV-I 0 W/m 4,4 km/h (1 Bft)
29.06.2013 00:00 13,9 C 12,3 C 95 % 1016,9 hPa 1,0 l/m 0,00 h 0,98 h 0,0 UV-I 0 W/m 2,7 km/h (1 Bft)
29.06.2013 01:00 13,6 C 12,3 C 97 % 1015,9 hPa 1,0 l/m 0,00 h 0,98 h 0,0 UV-I 0 W/m 5,7 km/h (1 Bft)
29.06.2013 02:00 13,5 C 12,3 C 98 % 1014,8 hPa 1,4 l/m 0,00 h 0,97 h 0,0 UV-I 0 W/m 5,6 km/h (1 Bft)
29.06.2013 03:00 13,4 C 12,3 C 98 % 1013,7 hPa 0,8 l/m 0,00 h 0,83 h 0,0 UV-I 0 W/m 6,2 km/h (2 Bft)
29.06.2013 04:00 13,7 C 12,7 C 99 % 1013,2 hPa 0,6 l/m 0,00 h 0,70 h 0,0 UV-I 0 W/m 8,0 km/h (2 Bft)
29.06.2013 05:00 14,1 C 12,9 C 99 % 1013,1 hPa 0,8 l/m 0,00 h 0,60 h 0,0 UV-I 9 W/m 7,4 km/h (2 Bft)
29.06.2013 06:00 14,2 C 13,3 C 99 % 1013,6 hPa 0,0 l/m 0,00 h 0,27 h 0,0 UV-I 16 W/m 5,3 km/h (1 Bft)
29.06.2013 07:00 14,2 C 13,3 C 99 % 1014,3 hPa 0,2 l/m 0,00 h 0,10 h 0,0 UV-I 50 W/m 6,9 km/h (2 Bft)
29.06.2013 08:00 14,5 C 13,5 C 99 % 1015,0 hPa 0,0 l/m 0,00 h 0,07 h 0,0 UV-I 80 W/m 3,5 km/h (1 Bft)
29.06.2013 09:00 15,1 C 14,4 C 99 % 1015,7 hPa 0,0 l/m 0,07 h 0,00 h 0,7 UV-I 206 W/m 12,0 km/h (2 Bft)
29.06.2013 10:00 15,4 C 14,7 C 94 % 1016,6 hPa 0,0 l/m 0,10 h 0,07 h 0,8 UV-I 175 W/m 15,3 km/h (3 Bft)
29.06.2013 11:00 16,2 C 16,7 C 88 % 1017,5 hPa 0,0 l/m 0,40 h 0,00 h 2,2 UV-I 427 W/m 16,1 km/h (3 Bft)
29.06.2013 12:00 17,1 C 18,5 C 79 % 1018,3 hPa 0,0 l/m 0,53 h 0,00 h 3,3 UV-I 531 W/m 20,6 km/h (4 Bft)
29.06.2013 13:00 18,0 C 19,6 C 73 % 1018,9 hPa 0,0 l/m 0,50 h 0,00 h 2,6 UV-I 602 W/m 20,2 km/h (4 Bft)
29.06.2013 14:00 18,4 C 19,0 C 67 % 1019,7 hPa 0,0 l/m 0,68 h 0,00 h 4,3 UV-I 644 W/m 20,9 km/h (4 Bft)
29.06.2013 15:00 19,1 C 19,5 C 62 % 1020,0 hPa 0,0 l/m 0,83 h 0,00 h 4,0 UV-I 734 W/m 20,5 km/h (4 Bft)
29.06.2013 16:00 18,9 C 19,4 C 61 % 1020,4 hPa 0,0 l/m 0,50 h 0,00 h 2,4 UV-I 501 W/m 19,5 km/h (3 Bft)
29.06.2013 17:00 18,3 C 17,9 C 58 % 1021,0 hPa 0,0 l/m 0,65 h 0,00 h 1,4 UV-I 431 W/m 21,3 km/h (4 Bft)
29.06.2013 18:00 17,5 C 16,8 C 58 % 1021,5 hPa 0,0 l/m 0,45 h 0,00 h 0,8 UV-I 281 W/m 22,3 km/h (4 Bft)
29.06.2013 19:00 16,8 C 15,8 C 61 % 1021,8 hPa 0,0 l/m 0,00 h 0,00 h 0,0 UV-I 102 W/m 15,5 km/h (3 Bft)
29.06.2013 20:00 16,0 C 15,0 C 64 % 1022,5 hPa 0,0 l/m 0,00 h 0,00 h 0,0 UV-I 60 W/m 13,7 km/h (3 Bft)
29.06.2013 21:00 15,0 C 13,0 C 68 % 1023,1 hPa 0,0 l/m 0,00 h 0,00 h 0,0 UV-I 16 W/m 3,0 km/h (1 Bft)
29.06.2013 22:00 13,8 C 11,1 C 74 % 1023,8 hPa 0,0 l/m 0,00 h 0,00 h 0,0 UV-I 0 W/m 0,3 km/h (0 Bft)
29.06.2013 23:00 12,2 C 9,4 C 80 % 1024,2 hPa 0,0 l/m 0,00 h 0,00 h 0,0 UV-I 0 W/m 0,0 km/h (0 Bft)
30.06.2013 00:00 10,9 C 8,5 C 85 % 1024,3 hPa 0,0 l/m 0,00 h 0,00 h 0,0 UV-I 0 W/m 0,0 km/h (0 Bft)
30.06.2013 01:00 10,1 C 8,2 C 88 % 1024,3 hPa 0,0 l/m 0,00 h 0,00 h 0,0 UV-I 0 W/m 0,0 km/h (0 Bft)
30.06.2013 02:00 9,4 C 7,4 C 89 % 1024,3 hPa 0,0 l/m 0,00 h 0,00 h 0,0 UV-I 0 W/m 0,0 km/h (0 Bft)
30.06.2013 03:00 8,8 C 7,3 C 91 % 1024,0 hPa 0,0 l/m 0,00 h 0,00 h 0,0 UV-I 0 W/m 0,0 km/h (0 Bft)
30.06.2013 04:00 8,5 C 7,3 C 92 % 1023,6 hPa 0,0 l/m 0,00 h 0,00 h 0,0 UV-I 0 W/m 0,0 km/h (0 Bft)
30.06.2013 05:00 8,2 C 6,8 C 93 % 1023,6 hPa 0,0 l/m 0,00 h 0,00 h 0,0 UV-I 12 W/m 0,0 km/h (0 Bft)
30.06.2013 06:00 8,1 C 7,5 C 94 % 1023,6 hPa 0,0 l/m 0,00 h 0,00 h 0,0 UV-I 27 W/m 0,0 km/h (0 Bft)
30.06.2013 07:00 9,2 C 9,5 C 96 % 1023,5 hPa 0,0 l/m 0,07 h 0,00 h 0,0 UV-I 69 W/m 1,0 km/h (0 Bft)
30.06.2013 08:00 11,3 C 12,3 C 96 % 1023,6 hPa 0,0 l/m 0,70 h 0,00 h 0,5 UV-I 282 W/m 3,0 km/h (1 Bft)
30.06.2013 09:00 14,0 C 13,8 C 83 % 1023,8 hPa 0,0 l/m 0,10 h 0,00 h 0,6 UV-I 177 W/m 2,5 km/h (1 Bft)
30.06.2013 10:00 14,8 C 14,5 C 79 % 1023,7 hPa 0,0 l/m 0,00 h 0,00 h 0,7 UV-I 196 W/m 4,4 km/h (1 Bft)
30.06.2013 11:00 15,8 C 16,6 C 75 % 1023,3 hPa 0,0 l/m 0,33 h 0,00 h 1,9 UV-I 375 W/m 7,5 km/h (2 Bft)
30.06.2013 12:00 17,8 C 19,5 C 69 % 1023,0 hPa 0,0 l/m 0,93 h 0,00 h 3,2 UV-I 545 W/m 10,5 km/h (2 Bft)
30.06.2013 13:00 18,7 C 20,1 C 67 % 1022,7 hPa 0,0 l/m 0,37 h 0,00 h 2,7 UV-I 467 W/m 10,9 km/h (2 Bft)
30.06.2013 14:00 19,6 C 21,0 C 66 % 1022,1 hPa 0,0 l/m 0,83 h 0,00 h 3,2 UV-I 549 W/m 9,8 km/h (2 Bft)
30.06.2013 15:00 20,8 C 21,9 C 65 % 1021,5 hPa 0,0 l/m 0,67 h 0,00 h 3,1 UV-I 535 W/m 10,2 km/h (2 Bft)
30.06.2013 16:00 20,6 C 20,6 C 67 % 1021,0 hPa 0,0 l/m 0,07 h 0,00 h 1,2 UV-I 301 W/m 8,8 km/h (2 Bft)
30.06.2013 17:00 21,4 C 21,4 C 67 % 1020,5 hPa 0,0 l/m 0,27 h 0,00 h 1,1 UV-I 300 W/m 8,3 km/h (2 Bft)
30.06.2013 18:00 21,4 C 20,8 C 68 % 1019,8 hPa 0,0 l/m 0,47 h 0,00 h 0,7 UV-I 292 W/m 9,9 km/h (2 Bft)
30.06.2013 19:00 21,0 C 19,8 C 71 % 1019,4 hPa 0,0 l/m 0,00 h 0,00 h 0,0 UV-I 105 W/m 5,9 km/h (2 Bft)
30.06.2013 20:00 20,5 C 19,0 C 74 % 1019,1 hPa 0,0 l/m 0,00 h 0,00 h 0,0 UV-I 63 W/m 2,0 km/h (1 Bft)
30.06.2013 21:00 20,0 C 17,3 C 76 % 1018,9 hPa 0,0 l/m 0,00 h 0,00 h 0,0 UV-I 14 W/m 0,9 km/h (0 Bft)
30.06.2013 22:00 18,9 C 15,6 C 80 % 1018,8 hPa 0,0 l/m 0,00 h 0,00 h 0,0 UV-I 0 W/m 0,1 km/h (0 Bft)
30.06.2013 23:00 17,7 C 15,1 C 84 % 1018,8 hPa 0,0 l/m 0,00 h 0,00 h 0,0 UV-I 0 W/m 0,8 km/h (0 Bft)
Min-Datum _ 26.06.13 26.06.13 25.06.13 29.06.13 - - - - - 24.06.13
_ Min-Zeit 05:52 04:36 17:02 04:52 - - - - - 00:05
Minimum _ 6,2 C 5,1 C 55 % 1013,0 hPa - - - - - 0,0 km/h (0 Bft)
Max-Datum _ 30.06.13 26.06.13 29.06.13 26.06.13 27.06.13 24.06.13 24.06.13 29.06.13 24.06.13 29.06.13
_ Max-Zeit 17:06 10:58 09:00 09:10 02:02 07:50 01:30 14:17 14:58 14:14
Maximum _ 21,8 C 22,9 C 100 % 1028,9 hPa 2,4 l/m 0,03 h 0,03 h 5,7 UV-I 1157 W/m 41,2 km/h
N-NW (6 Bft)
Durchschnitt _ 13,9 C 13,3 C 83 % 1022,1 hPa #18,4 l/m #17:56 h #24:46 h 1,5 UV-I 206 W/m 6,0 km/h (2 Bft)
© 2013 W. Hausmann